EGHE/ISC METAR and TAF weather

Enter ICAO airport designator
Station Type Date Time Source
EGHE METAR 2018/01/22 11:50 UTC NOAA

EGHE 221150Z 27012KT 9999 FEW019 11/09 Q1018


Station Type Date Time Source
EGHE Decoded METAR 2018/01/22 11:50 UTC NOAA

Scilly, Saint Mary'S, United Kingdom (EGHE) 49-55N 006-18W 0M
Jan 22, 2018 - 06:50 AM EST / 2018.01.22 1150 UTC
Wind: from the W (270 degrees) at 14 MPH (12 KT):0
Visibility: greater than 7 mile(s):0
Sky conditions: mostly clear
Temperature: 51 F (11 C)
Dew Point: 48 F (9 C)
Relative Humidity: 87%
Pressure (altimeter): 30.06 in. Hg (1018 hPa)
ob: EGHE 221150Z 27012KT 9999 FEW019 11/09 Q1018
cycle: 12

Station Type Date Time Source
EGHE TAF UTC NOAA

Error!


Example: see airport list